sensor_id;sensor_type;location;lat;lon;timestamp;pressure;altitude;pressure_sealevel;temperature;humidity
60307;BME280;46155;52.364;6.580;2024-02-28T04:01:15;101723.69;;;1.78;100.00
60307;BME280;46155;52.364;6.580;2024-02-28T04:03:40;101724.03;;;1.81;100.00
60307;BME280;46155;52.364;6.580;2024-02-28T04:06:05;101722.75;;;1.77;100.00
60307;BME280;46155;52.364;6.580;2024-02-28T04:08:31;101725.00;;;1.74;100.00
60307;BME280;46155;52.364;6.580;2024-02-28T04:10:56;101726.03;;;1.67;100.00
60307;BME280;46155;52.364;6.580;2024-02-28T04:13:21;101722.34;;;1.65;100.00
60307;BME280;46155;52.364;6.580;2024-02-28T04:15:47;101732.34;;;1.62;100.00
60307;BME280;46155;52.364;6.580;2024-02-28T04:18:12;101732.34;;;1.62;100.00
60307;BME280;46155;52.364;6.580;2024-02-28T04:20:38;101721.44;;;1.65;100.00
60307;BME280;46155;52.364;6.580;2024-02-28T04:23:03;101730.09;;;1.65;100.00
60307;BME280;46155;52.364;6.580;2024-02-28T04:25:29;101732.19;;;1.61;100.00
60307;BME280;46155;52.364;6.580;2024-02-28T04:27:54;101730.66;;;1.63;100.00
60307;BME280;46155;52.364;6.580;2024-02-28T04:30:20;101731.44;;;1.62;100.00
60307;BME280;46155;52.364;6.580;2024-02-28T04:32:45;101731.63;;;1.63;100.00
60307;BME280;46155;52.364;6.580;2024-02-28T04:35:10;101728.66;;;1.60;100.00
60307;BME280;46155;52.364;6.580;2024-02-28T04:37:35;101723.16;;;1.57;100.00
60307;BME280;46155;52.364;6.580;2024-02-28T04:40:02;101727.41;;;1.57;100.00
60307;BME280;46155;52.364;6.580;2024-02-28T04:42:28;101733.50;;;1.57;100.00
60307;BME280;46155;52.364;6.580;2024-02-28T04:44:53;101726.50;;;1.56;100.00
60307;BME280;46155;52.364;6.580;2024-02-28T04:47:18;101735.69;;;1.61;100.00
60307;BME280;46155;52.364;6.580;2024-02-28T04:49:44;101736.41;;;1.60;100.00
60307;BME280;46155;52.364;6.580;2024-02-28T04:52:09;101731.63;;;1.63;100.00
60307;BME280;46155;52.364;6.580;2024-02-28T04:54:34;101734.19;;;1.63;100.00
60307;BME280;46155;52.364;6.580;2024-02-28T04:57:00;101742.72;;;1.62;100.00
60307;BME280;46155;52.364;6.580;2024-02-28T04:59:25;101741.59;;;1.60;100.00
60307;BME280;46155;52.364;6.580;2024-02-28T05:01:51;101747.88;;;1.62;100.00
60307;BME280;46155;52.364;6.580;2024-02-28T05:04:17;101741.19;;;1.64;100.00
60307;BME280;46155;52.364;6.580;2024-02-28T05:06:42;101754.91;;;1.63;100.00
60307;BME280;46155;52.364;6.580;2024-02-28T05:09:07;101749.13;;;1.66;100.00
60307;BME280;46155;52.364;6.580;2024-02-28T05:11:34;101749.72;;;1.63;100.00
60307;BME280;46155;52.364;6.580;2024-02-28T05:13:59;101755.91;;;1.72;100.00
60307;BME280;46155;52.364;6.580;2024-02-28T05:16:25;101751.91;;;1.67;100.00
60307;BME280;46155;52.364;6.580;2024-02-28T05:18:50;101750.06;;;1.66;100.00
60307;BME280;46155;52.364;6.580;2024-02-28T05:21:15;101747.88;;;1.62;100.00
60307;BME280;46155;52.364;6.580;2024-02-28T05:23:40;101758.56;;;1.65;100.00
60307;BME280;46155;52.364;6.580;2024-02-28T05:26:06;101760.81;;;1.62;100.00
60307;BME280;46155;52.364;6.580;2024-02-28T05:28:32;101744.19;;;1.60;100.00
60307;BME280;46155;52.364;6.580;2024-02-28T05:31:20;101747.72;;;1.61;100.00
60307;BME280;46155;52.364;6.580;2024-02-28T05:33:46;101747.94;;;1.55;100.00
60307;BME280;46155;52.364;6.580;2024-02-28T05:36:11;101754.03;;;1.55;100.00
60307;BME280;46155;52.364;6.580;2024-02-28T05:38:37;101753.88;;;1.54;100.00
60307;BME280;46155;52.364;6.580;2024-02-28T05:41:02;101746.28;;;1.55;100.00
60307;BME280;46155;52.364;6.580;2024-02-28T05:43:27;101752.38;;;1.56;100.00
60307;BME280;46155;52.364;6.580;2024-02-28T05:45:53;101731.78;;;1.42;100.00
60307;BME280;46155;52.364;6.580;2024-02-28T05:48:18;101732.94;;;1.36;100.00
60307;BME280;46155;52.364;6.580;2024-02-28T05:50:44;101734.59;;;1.36;100.00
60307;BME280;46155;52.364;6.580;2024-02-28T05:53:09;101746.06;;;1.38;100.00
60307;BME280;46155;52.364;6.580;2024-02-28T05:55:34;101742.72;;;1.39;100.00
60307;BME280;46155;52.364;6.580;2024-02-28T05:58:00;101755.06;;;1.42;100.00
60307;BME280;46155;52.364;6.580;2024-02-28T06:00:26;101753.53;;;1.51;100.00
60307;BME280;46155;52.364;6.580;2024-02-28T06:02:52;101757.19;;;1.53;100.00
60307;BME280;46155;52.364;6.580;2024-02-28T06:05:18;101763.13;;;1.52;100.00
60307;BME280;46155;52.364;6.580;2024-02-28T06:07:44;101762.59;;;1.47;100.00
60307;BME280;46155;52.364;6.580;2024-02-28T06:10:09;101761.94;;;1.41;100.00
60307;BME280;46155;52.364;6.580;2024-02-28T06:12:35;101757.31;;;1.38;100.00
60307;BME280;46155;52.364;6.580;2024-02-28T06:15:01;101761.03;;;1.41;100.00
60307;BME280;46155;52.364;6.580;2024-02-28T06:17:26;101769.47;;;1.47;100.00
60307;BME280;46155;52.364;6.580;2024-02-28T06:19:51;101771.00;;;1.61;100.00
60307;BME280;46155;52.364;6.580;2024-02-28T06:22:17;101771.31;;;1.48;100.00
60307;BME280;46155;52.364;6.580;2024-02-28T06:24:44;101776.16;;;1.45;100.00
60307;BME280;46155;52.364;6.580;2024-02-28T06:27:10;101784.47;;;1.42;100.00
60307;BME280;46155;52.364;6.580;2024-02-28T06:29:37;101782.16;;;1.52;100.00
60307;BME280;46155;52.364;6.580;2024-02-28T06:32:03;101785.16;;;1.48;100.00
60307;BME280;46155;52.364;6.580;2024-02-28T06:34:29;101785.88;;;1.47;100.00
60307;BME280;46155;52.364;6.580;2024-02-28T06:36:54;101788.53;;;1.40;100.00
60307;BME280;46155;52.364;6.580;2024-02-28T06:39:20;101789.81;;;1.44;100.00
60307;BME280;46155;52.364;6.580;2024-02-28T06:41:45;101796.78;;;1.52;100.00
60307;BME280;46155;52.364;6.580;2024-02-28T06:44:10;101783.91;;;1.45;100.00
60307;BME280;46155;52.364;6.580;2024-02-28T06:46:36;101806.44;;;1.46;100.00
60307;BME280;46155;52.364;6.580;2024-02-28T06:49:02;101810.69;;;1.68;100.00
60307;BME280;46155;52.364;6.580;2024-02-28T06:51:27;101801.66;;;1.65;100.00
60307;BME280;46155;52.364;6.580;2024-02-28T06:53:53;101806.28;;;1.67;100.00
60307;BME280;46155;52.364;6.580;2024-02-28T06:56:18;101805.81;;;1.79;100.00
60307;BME280;46155;52.364;6.580;2024-02-28T06:58:43;101799.34;;;1.75;100.00
60307;BME280;46155;52.364;6.580;2024-02-28T07:01:09;101812.63;;;1.78;100.00
60307;BME280;46155;52.364;6.580;2024-02-28T07:03:34;101804.94;;;1.71;100.00
60307;BME280;46155;52.364;6.580;2024-02-28T07:05:59;101804.75;;;1.69;100.00
60307;BME280;46155;52.364;6.580;2024-02-28T07:08:25;101802.34;;;1.71;100.00
60307;BME280;46155;52.364;6.580;2024-02-28T07:10:50;101819.72;;;1.72;100.00
60307;BME280;46155;52.364;6.580;2024-02-28T07:13:19;101818.03;;;1.72;100.00
60307;BME280;46155;52.364;6.580;2024-02-28T07:15:45;101814.72;;;1.74;100.00
60307;BME280;46155;52.364;6.580;2024-02-28T07:18:10;101812.88;;;1.72;100.00
60307;BME280;46155;52.364;6.580;2024-02-28T07:20:35;101810.28;;;1.72;100.00
60307;BME280;46155;52.364;6.580;2024-02-28T07:23:01;101819.84;;;1.81;100.00
60307;BME280;46155;52.364;6.580;2024-02-28T07:25:26;101823.09;;;1.87;100.00
60307;BME280;46155;52.364;6.580;2024-02-28T07:27:51;101818.53;;;1.84;100.00
60307;BME280;46155;52.364;6.580;2024-02-28T07:30:17;101840.75;;;1.98;100.00
60307;BME280;46155;52.364;6.580;2024-02-28T07:32:42;101844.03;;;2.04;100.00
60307;BME280;46155;52.364;6.580;2024-02-28T07:35:08;101840.69;;;2.05;100.00
60307;BME280;46155;52.364;6.580;2024-02-28T07:37:33;101842.69;;;2.08;100.00
60307;BME280;46155;52.364;6.580;2024-02-28T07:39:58;101816.13;;;2.02;100.00
60307;BME280;46155;52.364;6.580;2024-02-28T07:42:24;101834.44;;;2.19;100.00
60307;BME280;46155;52.364;6.580;2024-02-28T07:44:49;101845.50;;;2.26;100.00
60307;BME280;46155;52.364;6.580;2024-02-28T07:47:19;101852.63;;;2.35;100.00
60307;BME280;46155;52.364;6.580;2024-02-28T07:49:44;101854.94;;;2.25;100.00
60307;BME280;46155;52.364;6.580;2024-02-28T07:52:09;101852.50;;;2.27;100.00
60307;BME280;46155;52.364;6.580;2024-02-28T07:54:35;101856.44;;;2.23;100.00
60307;BME280;46155;52.364;6.580;2024-02-28T07:57:02;101848.28;;;2.27;100.00
60307;BME280;46155;52.364;6.580;2024-02-28T07:59:27;101844.91;;;2.28;100.00
60307;BME280;46155;52.364;6.580;2024-02-28T08:01:52;101840.75;;;2.21;100.00
60307;BME280;46155;52.364;6.580;2024-02-28T08:04:18;101848.50;;;2.21;100.00
60307;BME280;46155;52.364;6.580;2024-02-28T08:06:43;101851.09;;;2.21;100.00
60307;BME280;46155;52.364;6.580;2024-02-28T08:09:08;101835.03;;;2.17;100.00
60307;BME280;46155;52.364;6.580;2024-02-28T08:11:33;101846.75;;;2.29;100.00
60307;BME280;46155;52.364;6.580;2024-02-28T08:13:59;101841.25;;;2.26;100.00
60307;BME280;46155;52.364;6.580;2024-02-28T08:16:25;101851.13;;;2.37;100.00
60307;BME280;46155;52.364;6.580;2024-02-28T08:18:50;101859.97;;;2.39;100.00
60307;BME280;46155;52.364;6.580;2024-02-28T08:21:15;101861.31;;;2.52;100.00
60307;BME280;46155;52.364;6.580;2024-02-28T08:23:40;101861.66;;;2.55;100.00
60307;BME280;46155;52.364;6.580;2024-02-28T08:26:06;101876.13;;;2.69;100.00
60307;BME280;46155;52.364;6.580;2024-02-28T08:28:31;101877.72;;;2.75;100.00
60307;BME280;46155;52.364;6.580;2024-02-28T08:30:58;101874.66;;;2.71;100.00
60307;BME280;46155;52.364;6.580;2024-02-28T08:33:23;101888.59;;;2.80;100.00
60307;BME280;46155;52.364;6.580;2024-02-28T08:35:48;101892.78;;;2.87;100.00
60307;BME280;46155;52.364;6.580;2024-02-28T08:38:15;101897.41;;;2.89;100.00
60307;BME280;46155;52.364;6.580;2024-02-28T08:40:41;101899.31;;;2.99;100.00
60307;BME280;46155;52.364;6.580;2024-02-28T08:43:06;101899.22;;;3.06;100.00
60307;BME280;46155;52.364;6.580;2024-02-28T08:45:31;101895.09;;;3.08;100.00
60307;BME280;46155;52.364;6.580;2024-02-28T08:47:57;101896.97;;;3.09;100.00
60307;BME280;46155;52.364;6.580;2024-02-28T08:50:26;101896.97;;;3.09;100.00
60307;BME280;46155;52.364;6.580;2024-02-28T08:52:51;101892.91;;;3.20;100.00
60307;BME280;46155;52.364;6.580;2024-02-28T08:55:16;101899.91;;;3.37;100.00
60307;BME280;46155;52.364;6.580;2024-02-28T08:57:44;101889.59;;;3.46;100.00
60307;BME280;46155;52.364;6.580;2024-02-28T09:00:10;101894.00;;;3.63;100.00
60307;BME280;46155;52.364;6.580;2024-02-28T09:02:37;101890.31;;;3.61;100.00
60307;BME280;46155;52.364;6.580;2024-02-28T09:05:04;101908.69;;;3.47;100.00
60307;BME280;46155;52.364;6.580;2024-02-28T09:07:29;101898.94;;;3.53;100.00
60307;BME280;46155;52.364;6.580;2024-02-28T09:09:55;101894.13;;;3.40;100.00
60307;BME280;46155;52.364;6.580;2024-02-28T09:12:20;101900.25;;;3.40;100.00
60307;BME280;46155;52.364;6.580;2024-02-28T09:14:45;101907.78;;;3.46;100.00
60307;BME280;46155;52.364;6.580;2024-02-28T09:17:11;101903.34;;;3.45;100.00
60307;BME280;46155;52.364;6.580;2024-02-28T09:19:36;101905.34;;;3.48;100.00
60307;BME280;46155;52.364;6.580;2024-02-28T09:22:02;101906.09;;;3.47;100.00
60307;BME280;46155;52.364;6.580;2024-02-28T09:24:27;101906.69;;;3.44;100.00
60307;BME280;46155;52.364;6.580;2024-02-28T09:26:52;101900.84;;;3.38;100.00
60307;BME280;46155;52.364;6.580;2024-02-28T09:29:17;101894.34;;;3.25;100.00
60307;BME280;46155;52.364;6.580;2024-02-28T09:31:43;101891.91;;;3.27;100.00
60307;BME280;46155;52.364;6.580;2024-02-28T09:34:08;101908.56;;;3.29;100.00
60307;BME280;46155;52.364;6.580;2024-02-28T09:36:44;101904.78;;;3.34;100.00
60307;BME280;46155;52.364;6.580;2024-02-28T09:39:13;101900.63;;;3.27;100.00
60307;BME280;46155;52.364;6.580;2024-02-28T09:41:40;101906.88;;;3.30;100.00
60307;BME280;46155;52.364;6.580;2024-02-28T09:44:07;101902.00;;;3.33;100.00
60307;BME280;46155;52.364;6.580;2024-02-28T09:46:33;101910.47;;;3.39;100.00
60307;BME280;46155;52.364;6.580;2024-02-28T09:49:04;101908.03;;;3.40;100.00
60307;BME280;46155;52.364;6.580;2024-02-28T09:51:33;101907.25;;;3.41;100.00
60307;BME280;46155;52.364;6.580;2024-02-28T09:54:00;101905.03;;;3.44;100.00
60307;BME280;46155;52.364;6.580;2024-02-28T09:56:25;101907.78;;;3.46;100.00
60307;BME280;46155;52.364;6.580;2024-02-28T09:58:51;101910.44;;;3.55;100.00
60307;BME280;46155;52.364;6.580;2024-02-28T10:01:19;101906.72;;;3.53;100.00
60307;BME280;46155;52.364;6.580;2024-02-28T10:03:47;101910.38;;;3.46;100.00
60307;BME280;46155;52.364;6.580;2024-02-28T10:06:12;101913.06;;;3.39;100.00
60307;BME280;46155;52.364;6.580;2024-02-28T10:08:38;101912.47;;;3.41;100.00
60307;BME280;46155;52.364;6.580;2024-02-28T10:11:04;101910.38;;;3.46;100.00
60307;BME280;46155;52.364;6.580;2024-02-28T10:13:31;101915.41;;;3.44;100.00
60307;BME280;46155;52.364;6.580;2024-02-28T10:18:22;101913.13;;;3.48;100.00
60307;BME280;46155;52.364;6.580;2024-02-28T10:20:47;101922.31;;;3.53;100.00
60307;BME280;46155;52.364;6.580;2024-02-28T10:23:13;101910.59;;;3.56;100.00
60307;BME280;46155;52.364;6.580;2024-02-28T10:25:45;101907.41;;;3.59;100.00
60307;BME280;46155;52.364;6.580;2024-02-28T10:28:12;101921.78;;;3.64;100.00
60307;BME280;46155;52.364;6.580;2024-02-28T10:30:42;101924.06;;;3.61;100.00
60307;BME280;46155;52.364;6.580;2024-02-28T10:33:12;101923.78;;;3.67;100.00
60307;BME280;46155;52.364;6.580;2024-02-28T10:35:41;101921.88;;;3.73;100.00
60307;BME280;46155;52.364;6.580;2024-02-28T10:38:11;101927.06;;;3.73;100.00
60307;BME280;46155;52.364;6.580;2024-02-28T10:40:38;101922.66;;;3.81;100.00
60307;BME280;46155;52.364;6.580;2024-02-28T10:43:04;101919.16;;;3.80;100.00
60307;BME280;46155;52.364;6.580;2024-02-28T10:45:31;101924.63;;;3.74;100.00
60307;BME280;46155;52.364;6.580;2024-02-28T10:47:57;101931.97;;;3.78;100.00
60307;BME280;46155;52.364;6.580;2024-02-28T10:50:22;101925.41;;;3.82;100.00
60307;BME280;46155;52.364;6.580;2024-02-28T10:52:48;101928.34;;;3.85;100.00
60307;BME280;46155;52.364;6.580;2024-02-28T10:55:20;101927.75;;;3.88;100.00
60307;BME280;46155;52.364;6.580;2024-02-28T10:57:54;101930.50;;;3.89;100.00
60307;BME280;46155;52.364;6.580;2024-02-28T11:00:23;101928.38;;;3.94;100.00
60307;BME280;46155;52.364;6.580;2024-02-28T11:02:49;101923.38;;;3.95;100.00
60307;BME280;46155;52.364;6.580;2024-02-28T11:05:14;101924.91;;;4.02;100.00
60307;BME280;46155;52.364;6.580;2024-02-28T11:07:42;101916.16;;;3.93;100.00
60307;BME280;46155;52.364;6.580;2024-02-28T11:10:08;101909.75;;;3.98;100.00
60307;BME280;46155;52.364;6.580;2024-02-28T11:12:35;101915.63;;;4.04;100.00
60307;BME280;46155;52.364;6.580;2024-02-28T11:15:03;101915.19;;;4.08;100.00
60307;BME280;46155;52.364;6.580;2024-02-28T11:17:32;101913.00;;;4.04;100.00
60307;BME280;46155;52.364;6.580;2024-02-28T11:19:58;101911.69;;;4.17;100.00
60307;BME280;46155;52.364;6.580;2024-02-28T11:22:24;101907.72;;;4.20;100.00
60307;BME280;46155;52.364;6.580;2024-02-28T11:24:54;101905.75;;;4.26;100.00
60307;BME280;46155;52.364;6.580;2024-02-28T11:27:20;101895.84;;;4.31;100.00
60307;BME280;46155;52.364;6.580;2024-02-28T11:29:45;101889.13;;;4.42;100.00
60307;BME280;46155;52.364;6.580;2024-02-28T11:32:12;101887.19;;;4.48;100.00
60307;BME280;46155;52.364;6.580;2024-02-28T11:34:39;101888.91;;;4.65;100.00
60307;BME280;46155;52.364;6.580;2024-02-28T11:37:08;101891.22;;;4.79;100.00
60307;BME280;46155;52.364;6.580;2024-02-28T11:39:34;101888.78;;;4.90;100.00
60307;BME280;46155;52.364;6.580;2024-02-28T11:42:12;101884.03;;;4.86;100.00
60307;BME280;46155;52.364;6.580;2024-02-28T11:44:41;101880.97;;;4.98;100.00
60307;BME280;46155;52.364;6.580;2024-02-28T11:47:11;101878.81;;;5.03;100.00
60307;BME280;46155;52.364;6.580;2024-02-28T11:49:37;101880.97;;;5.07;100.00
60307;BME280;46155;52.364;6.580;2024-02-28T11:52:03;101878.53;;;5.00;100.00
60307;BME280;46155;52.364;6.580;2024-02-28T11:54:29;101873.31;;;5.00;100.00
60307;BME280;46155;52.364;6.580;2024-02-28T11:56:55;101877.75;;;5.01;100.00
60307;BME280;46155;52.364;6.580;2024-02-28T11:59:20;101874.88;;;4.98;100.00
60307;BME280;46155;52.364;6.580;2024-02-28T12:01:45;101872.72;;;5.03;100.00
60307;BME280;46155;52.364;6.580;2024-02-28T12:04:12;101870.41;;;5.14;100.00
60307;BME280;46155;52.364;6.580;2024-02-28T12:06:38;101860.44;;;5.28;100.00
60307;BME280;46155;52.364;6.580;2024-02-28T12:09:08;101862.59;;;5.32;100.00
60307;BME280;46155;52.364;6.580;2024-02-28T12:11:37;101854.00;;;5.42;100.00
60307;BME280;46155;52.364;6.580;2024-02-28T12:14:03;101859.06;;;5.40;100.00
60307;BME280;46155;52.364;6.580;2024-02-28T12:16:30;101858.91;;;5.47;100.00
60307;BME280;46155;52.364;6.580;2024-02-28T12:18:55;101853.38;;;5.44;100.00
60307;BME280;46155;52.364;6.580;2024-02-28T12:21:21;101857.34;;;5.49;100.00
60307;BME280;46155;52.364;6.580;2024-02-28T12:23:47;101863.16;;;5.56;100.00
60307;BME280;46155;52.364;6.580;2024-02-28T12:26:18;101865.00;;;5.57;100.00
60307;BME280;46155;52.364;6.580;2024-02-28T12:28:44;101852.25;;;5.60;100.00
60307;BME280;46155;52.364;6.580;2024-02-28T12:31:10;101853.38;;;5.53;100.00
60307;BME280;46155;52.364;6.580;2024-02-28T12:33:37;101851.06;;;5.56;100.00
60307;BME280;46155;52.364;6.580;2024-02-28T12:36:02;101842.47;;;5.66;100.00
60307;BME280;46155;52.364;6.580;2024-02-28T12:38:29;101837.81;;;5.72;100.00
60307;BME280;46155;52.364;6.580;2024-02-28T12:40:54;101845.56;;;5.90;100.00
60307;BME280;46155;52.364;6.580;2024-02-28T12:43:20;101849.88;;;5.98;100.00
60307;BME280;46155;52.364;6.580;2024-02-28T12:45:45;101841.56;;;6.02;100.00
60307;BME280;46155;52.364;6.580;2024-02-28T12:48:10;101833.56;;;6.09;100.00
60307;BME280;46155;52.364;6.580;2024-02-28T12:50:36;101835.50;;;6.20;100.00
60307;BME280;46155;52.364;6.580;2024-02-28T12:53:02;101831.81;;;6.27;100.00
60307;BME280;46155;52.364;6.580;2024-02-28T12:55:28;101827.97;;;6.24;100.00
60307;BME280;46155;52.364;6.580;2024-02-28T12:57:53;101838.38;;;6.32;100.00
60307;BME280;46155;52.364;6.580;2024-02-28T13:00:19;101834.84;;;6.32;100.00
60307;BME280;46155;52.364;6.580;2024-02-28T13:02:44;101835.28;;;6.36;100.00
60307;BME280;46155;52.364;6.580;2024-02-28T13:05:11;101843.41;;;6.40;100.00
60307;BME280;46155;52.364;6.580;2024-02-28T13:07:38;101832.81;;;6.38;100.00
60307;BME280;46155;52.364;6.580;2024-02-28T13:10:03;101834.00;;;6.42;100.00
60307;BME280;46155;52.364;6.580;2024-02-28T13:12:30;101832.63;;;6.45;100.00
60307;BME280;46155;52.364;6.580;2024-02-28T13:14:55;101827.34;;;6.54;100.00
60307;BME280;46155;52.364;6.580;2024-02-28T13:17:21;101820.34;;;6.63;100.00
60307;BME280;46155;52.364;6.580;2024-02-28T13:19:47;101825.88;;;6.85;100.00
60307;BME280;46155;52.364;6.580;2024-02-28T13:22:12;101826.63;;;6.84;100.00
60307;BME280;46155;52.364;6.580;2024-02-28T13:24:37;101827.06;;;6.70;100.00
60307;BME280;46155;52.364;6.580;2024-02-28T13:27:03;101824.59;;;6.71;100.00
60307;BME280;46155;52.364;6.580;2024-02-28T13:29:28;101820.00;;;6.69;100.00
60307;BME280;46155;52.364;6.580;2024-02-28T13:31:54;101820.06;;;6.60;100.00
60307;BME280;46155;52.364;6.580;2024-02-28T13:34:19;101824.38;;;6.60;100.00
60307;BME280;46155;52.364;6.580;2024-02-28T13:36:45;101820.13;;;6.51;100.00
60307;BME280;46155;52.364;6.580;2024-02-28T13:39:10;101811.63;;;6.44;100.00
60307;BME280;46155;52.364;6.580;2024-02-28T13:41:39;101815.59;;;6.40;100.00
60307;BME280;46155;52.364;6.580;2024-02-28T13:44:04;101818.97;;;6.39;100.00
60307;BME280;46155;52.364;6.580;2024-02-28T13:46:30;101810.09;;;6.37;100.00
60307;BME280;46155;52.364;6.580;2024-02-28T13:48:55;101804.16;;;6.29;100.00
60307;BME280;46155;52.364;6.580;2024-02-28T13:51:20;101809.03;;;6.35;100.00
60307;BME280;46155;52.364;6.580;2024-02-28T13:53:49;101807.38;;;6.35;100.00
60307;BME280;46155;52.364;6.580;2024-02-28T13:56:17;101805.38;;;6.33;100.00
60307;BME280;46155;52.364;6.580;2024-02-28T13:58:42;101808.13;;;6.34;100.00
60307;BME280;46155;52.364;6.580;2024-02-28T14:01:08;101802.50;;;6.30;100.00
60307;BME280;46155;52.364;6.580;2024-02-28T14:03:33;101802.78;;;6.33;100.00
60307;BME280;46155;52.364;6.580;2024-02-28T14:05:59;101792.34;;;6.33;100.00
60307;BME280;46155;52.364;6.580;2024-02-28T14:08:24;101794.19;;;6.34;100.00
60307;BME280;46155;52.364;6.580;2024-02-28T14:10:50;101788.69;;;6.31;100.00
60307;BME280;46155;52.364;6.580;2024-02-28T14:13:15;101784.31;;;6.40;100.00
60307;BME280;46155;52.364;6.580;2024-02-28T14:15:45;101784.59;;;6.43;100.00
60307;BME280;46155;52.364;6.580;2024-02-28T14:18:11;101791.66;;;6.44;100.00
60307;BME280;46155;52.364;6.580;2024-02-28T14:20:37;101795.91;;;6.52;100.00
60307;BME280;46155;52.364;6.580;2024-02-28T14:23:03;101790.09;;;6.46;100.00
60307;BME280;46155;52.364;6.580;2024-02-28T14:25:30;101789.59;;;6.50;100.00
60307;BME280;46155;52.364;6.580;2024-02-28T14:27:55;101795.63;;;6.49;100.00
60307;BME280;46155;52.364;6.580;2024-02-28T14:30:22;101800.53;;;6.46;100.00
60307;BME280;46155;52.364;6.580;2024-02-28T14:32:49;101789.47;;;6.49;100.00
60307;BME280;46155;52.364;6.580;2024-02-28T14:35:14;101788.97;;;6.53;100.00
60307;BME280;46155;52.364;6.580;2024-02-28T14:37:40;101789.19;;;6.46;100.00
60307;BME280;46155;52.364;6.580;2024-02-28T14:40:06;101786.16;;;6.41;100.00
60307;BME280;46155;52.364;6.580;2024-02-28T14:42:42;101786.91;;;6.40;100.00
60307;BME280;46155;52.364;6.580;2024-02-28T14:45:09;101777.25;;;6.39;100.00
60307;BME280;46155;52.364;6.580;2024-02-28T14:47:36;101783.75;;;6.34;100.00
60307;BME280;46155;52.364;6.580;2024-02-28T14:50:03;101783.59;;;6.32;100.00
60307;BME280;46155;52.364;6.580;2024-02-28T14:52:28;101771.81;;;6.27;100.00
60307;BME280;46155;52.364;6.580;2024-02-28T14:54:53;101777.66;;;6.25;100.00
60307;BME280;46155;52.364;6.580;2024-02-28T14:57:19;101771.97;;;6.29;100.00
60307;BME280;46155;52.364;6.580;2024-02-28T14:59:44;101781.00;;;6.32;100.00
60307;BME280;46155;52.364;6.580;2024-02-28T15:02:13;101773.03;;;6.31;100.00
60307;BME280;46155;52.364;6.580;2024-02-28T15:04:38;101770.91;;;6.27;100.00
60307;BME280;46155;52.364;6.580;2024-02-28T15:07:04;101769.06;;;6.26;100.00
60307;BME280;46155;52.364;6.580;2024-02-28T15:09:30;101765.63;;;6.35;100.00
60307;BME280;46155;52.364;6.580;2024-02-28T15:11:55;101765.00;;;6.38;100.00
60307;BME280;46155;52.364;6.580;2024-02-28T15:14:22;101759.78;;;6.38;100.00
60307;BME280;46155;52.364;6.580;2024-02-28T15:16:48;101755.13;;;6.44;100.00
60307;BME280;46155;52.364;6.580;2024-02-28T15:19:13;101766.41;;;6.34;100.00
60307;BME280;46155;52.364;6.580;2024-02-28T15:21:38;101768.09;;;6.34;100.00
60307;BME280;46155;52.364;6.580;2024-02-28T15:24:04;101764.69;;;6.35;100.00
60307;BME280;46155;52.364;6.580;2024-02-28T15:26:30;101760.13;;;6.32;100.00
60307;BME280;46155;52.364;6.580;2024-02-28T15:28:55;101753.22;;;6.33;100.00
60307;BME280;46155;52.364;6.580;2024-02-28T15:31:21;101750.59;;;6.33;100.00
60307;BME280;46155;52.364;6.580;2024-02-28T15:33:47;101746.97;;;6.31;100.00
60307;BME280;46155;52.364;6.580;2024-02-28T15:36:13;101749.25;;;6.28;100.00
60307;BME280;46155;52.364;6.580;2024-02-28T15:38:38;101755.53;;;6.30;100.00
60307;BME280;46155;52.364;6.580;2024-02-28T15:41:06;101753.97;;;6.32;100.00
60307;BME280;46155;52.364;6.580;2024-02-28T15:43:32;101759.53;;;6.26;100.00
60307;BME280;46155;52.364;6.580;2024-02-28T15:45:59;101740.25;;;6.24;100.00
60307;BME280;46155;52.364;6.580;2024-02-28T15:48:25;101737.00;;;6.27;100.00
60307;BME280;46155;52.364;6.580;2024-02-28T15:50:50;101739.56;;;6.35;100.00
60307;BME280;46155;52.364;6.580;2024-02-28T15:53:18;101737.84;;;6.36;100.00
60307;BME280;46155;52.364;6.580;2024-02-28T15:55:43;101723.91;;;6.35;100.00
60307;BME280;46155;52.364;6.580;2024-02-28T15:58:08;101724.81;;;6.36;100.00
60307;BME280;46155;52.364;6.580;2024-02-28T16:00:34;101721.91;;;6.33;100.00
60307;BME280;46155;52.364;6.580;2024-02-28T16:02:59;101717.97;;;6.28;100.00
60307;BME280;46155;52.364;6.580;2024-02-28T16:05:24;101721.38;;;6.27;100.00
60307;BME280;46155;52.364;6.580;2024-02-28T16:07:53;101717.19;;;6.29;100.00
60307;BME280;46155;52.364;6.580;2024-02-28T16:10:19;101729.41;;;6.19;100.00
60307;BME280;46155;52.364;6.580;2024-02-28T16:12:45;101726.00;;;6.20;100.00
60307;BME280;46155;52.364;6.580;2024-02-28T16:15:11;101718.44;;;6.24;100.00
60307;BME280;46155;52.364;6.580;2024-02-28T16:17:37;101715.91;;;6.15;100.00
60307;BME280;46155;52.364;6.580;2024-02-28T16:20:03;101697.09;;;6.09;100.00
60307;BME280;46155;52.364;6.580;2024-02-28T16:22:29;101716.69;;;6.14;100.00
60307;BME280;46155;52.364;6.580;2024-02-28T16:24:54;101715.47;;;6.10;100.00
60307;BME280;46155;52.364;6.580;2024-02-28T16:27:19;101708.78;;;6.03;100.00
60307;BME280;46155;52.364;6.580;2024-02-28T16:29:45;101714.00;;;6.03;100.00
60307;BME280;46155;52.364;6.580;2024-02-28T16:32:10;101704.97;;;6.00;100.00
60307;BME280;46155;52.364;6.580;2024-02-28T16:34:35;101702.38;;;6.00;100.00
60307;BME280;46155;52.364;6.580;2024-02-28T16:37:02;101700.69;;;6.00;100.00
60307;BME280;46155;52.364;6.580;2024-02-28T16:39:28;101695.00;;;5.96;100.00
60307;BME280;46155;52.364;6.580;2024-02-28T16:41:55;101691.31;;;5.94;100.00
60307;BME280;46155;52.364;6.580;2024-02-28T16:44:20;101693.03;;;5.93;100.00
60307;BME280;46155;52.364;6.580;2024-02-28T16:46:46;101702.66;;;6.03;100.00